Terminal Aerodrome Forecast
Issued by NWS Louisville, KY

Home | Current Version | Previous Version | Text Only | Print | Product List | Glossary On
Versions: 1 2 3 4 5 6 7 8 9 10 11 12 13 14 15 16
000
FTUS43 KLMK 230335 AAB
TAFSDF
TAF AMD
KSDF 230335Z 2304/2406 14008KT P6SM SCT060 BKN200
     FM230500 15007KT P6SM VCSH SCT070 BKN100 WS020/16035KT
      TEMPO 2307/2311 4SM -SHRA BKN040
     FM231100 15008KT 5SM -SHRA BKN025
     FM231600 22011G16KT 5SM -SHRA BKN015
     FM232000 25013G19KT 6SM BR VCSH BKN015
     FM240000 25010KT P6SM SCT025 BKN040=

USA.gov is the U.S. government's official web portal to all federal, state and local government web resources and services.